sensor_id;sensor_type;location;lat;lon;timestamp;P1;durP1;ratioP1;P2;durP2;ratioP2
15240;SDS011;7723;52.170;9.978;2023-04-24T00:00:30;1.33;;;1.23;;
15240;SDS011;7723;52.170;9.978;2023-04-24T00:02:57;1.27;;;0.63;;
15240;SDS011;7723;52.170;9.978;2023-04-24T00:05:24;1.38;;;1.00;;
15240;SDS011;7723;52.170;9.978;2023-04-24T00:07:51;1.00;;;0.85;;
15240;SDS011;7723;52.170;9.978;2023-04-24T00:10:20;1.67;;;0.70;;
15240;SDS011;7723;52.170;9.978;2023-04-24T00:12:47;1.73;;;0.90;;
15240;SDS011;7723;52.170;9.978;2023-04-24T00:15:15;1.88;;;0.90;;
15240;SDS011;7723;52.170;9.978;2023-04-24T00:17:42;1.00;;;1.00;;
15240;SDS011;7723;52.170;9.978;2023-04-24T00:20:09;1.48;;;0.93;;
15240;SDS011;7723;52.170;9.978;2023-04-24T00:22:37;0.75;;;0.70;;
15240;SDS011;7723;52.170;9.978;2023-04-24T00:25:05;1.60;;;1.00;;
15240;SDS011;7723;52.170;9.978;2023-04-24T00:27:34;1.45;;;0.95;;
15240;SDS011;7723;52.170;9.978;2023-04-24T00:30:02;1.80;;;1.02;;
15240;SDS011;7723;52.170;9.978;2023-04-24T00:32:30;0.90;;;0.80;;
15240;SDS011;7723;52.170;9.978;2023-04-24T00:34:57;1.20;;;0.90;;
15240;SDS011;7723;52.170;9.978;2023-04-24T00:37:24;3.03;;;0.88;;
15240;SDS011;7723;52.170;9.978;2023-04-24T00:39:51;0.77;;;0.77;;
15240;SDS011;7723;52.170;9.978;2023-04-24T00:42:18;1.20;;;0.90;;
15240;SDS011;7723;52.170;9.978;2023-04-24T00:44:47;1.25;;;1.05;;
15240;SDS011;7723;52.170;9.978;2023-04-24T00:47:15;1.23;;;1.13;;
15240;SDS011;7723;52.170;9.978;2023-04-24T00:49:42;3.03;;;1.10;;
15240;SDS011;7723;52.170;9.978;2023-04-24T00:52:09;0.98;;;0.88;;
15240;SDS011;7723;52.170;9.978;2023-04-24T00:54:37;2.10;;;1.52;;
15240;SDS011;7723;52.170;9.978;2023-04-24T00:57:04;1.65;;;1.15;;
15240;SDS011;7723;52.170;9.978;2023-04-24T00:59:32;1.92;;;1.20;;
15240;SDS011;7723;52.170;9.978;2023-04-24T01:02:00;1.17;;;1.02;;
15240;SDS011;7723;52.170;9.978;2023-04-24T01:04:28;2.97;;;0.90;;
15240;SDS011;7723;52.170;9.978;2023-04-24T01:06:55;1.17;;;0.93;;
15240;SDS011;7723;52.170;9.978;2023-04-24T01:09:23;2.10;;;1.10;;
15240;SDS011;7723;52.170;9.978;2023-04-24T01:11:51;2.80;;;0.93;;
15240;SDS011;7723;52.170;9.978;2023-04-24T01:14:19;1.00;;;0.90;;
15240;SDS011;7723;52.170;9.978;2023-04-24T01:16:46;1.10;;;1.00;;
15240;SDS011;7723;52.170;9.978;2023-04-24T01:19:15;2.45;;;1.00;;
15240;SDS011;7723;52.170;9.978;2023-04-24T01:21:44;1.55;;;1.00;;
15240;SDS011;7723;52.170;9.978;2023-04-24T01:24:17;3.20;;;1.15;;
15240;SDS011;7723;52.170;9.978;2023-04-24T01:26:45;1.02;;;1.00;;
15240;SDS011;7723;52.170;9.978;2023-04-24T01:29:13;1.80;;;1.52;;
15240;SDS011;7723;52.170;9.978;2023-04-24T01:31:40;2.83;;;1.52;;
15240;SDS011;7723;52.170;9.978;2023-04-24T01:34:07;2.17;;;0.90;;
15240;SDS011;7723;52.170;9.978;2023-04-24T01:36:35;1.80;;;1.70;;
15240;SDS011;7723;52.170;9.978;2023-04-24T01:39:02;1.45;;;1.10;;
15240;SDS011;7723;52.170;9.978;2023-04-24T01:41:31;1.45;;;1.20;;
15240;SDS011;7723;52.170;9.978;2023-04-24T01:43:58;1.60;;;1.23;;
15240;SDS011;7723;52.170;9.978;2023-04-24T01:46:25;1.65;;;1.15;;
15240;SDS011;7723;52.170;9.978;2023-04-24T01:48:53;1.15;;;1.05;;
15240;SDS011;7723;52.170;9.978;2023-04-24T01:51:21;1.10;;;0.80;;
15240;SDS011;7723;52.170;9.978;2023-04-24T01:53:49;0.73;;;0.70;;
15240;SDS011;7723;52.170;9.978;2023-04-24T01:56:16;0.75;;;0.70;;
15240;SDS011;7723;52.170;9.978;2023-04-24T01:58:45;4.15;;;0.88;;
15240;SDS011;7723;52.170;9.978;2023-04-24T02:01:14;0.98;;;0.90;;
15240;SDS011;7723;52.170;9.978;2023-04-24T02:03:44;1.15;;;0.88;;
15240;SDS011;7723;52.170;9.978;2023-04-24T02:06:11;1.85;;;1.13;;
15240;SDS011;7723;52.170;9.978;2023-04-24T02:08:38;2.70;;;1.63;;
15240;SDS011;7723;52.170;9.978;2023-04-24T02:11:05;2.13;;;1.10;;
15240;SDS011;7723;52.170;9.978;2023-04-24T02:13:32;1.15;;;0.85;;
15240;SDS011;7723;52.170;9.978;2023-04-24T02:16:01;1.08;;;0.80;;
15240;SDS011;7723;52.170;9.978;2023-04-24T02:18:28;0.93;;;0.85;;
15240;SDS011;7723;52.170;9.978;2023-04-24T02:20:55;1.42;;;1.10;;
15240;SDS011;7723;52.170;9.978;2023-04-24T02:23:22;1.65;;;1.02;;
15240;SDS011;7723;52.170;9.978;2023-04-24T02:25:49;1.17;;;0.80;;
15240;SDS011;7723;52.170;9.978;2023-04-24T02:28:18;1.52;;;0.85;;
15240;SDS011;7723;52.170;9.978;2023-04-24T02:30:45;1.45;;;1.25;;
15240;SDS011;7723;52.170;9.978;2023-04-24T02:33:14;1.58;;;0.90;;
15240;SDS011;7723;52.170;9.978;2023-04-24T02:35:41;2.47;;;0.90;;
15240;SDS011;7723;52.170;9.978;2023-04-24T02:38:08;1.70;;;1.35;;
15240;SDS011;7723;52.170;9.978;2023-04-24T02:40:35;1.42;;;0.90;;
15240;SDS011;7723;52.170;9.978;2023-04-24T02:43:02;1.40;;;0.95;;
15240;SDS011;7723;52.170;9.978;2023-04-24T02:45:29;1.92;;;1.08;;
15240;SDS011;7723;52.170;9.978;2023-04-24T02:47:56;1.15;;;0.93;;
15240;SDS011;7723;52.170;9.978;2023-04-24T02:50:25;1.10;;;0.85;;
15240;SDS011;7723;52.170;9.978;2023-04-24T02:52:52;1.95;;;1.00;;
15240;SDS011;7723;52.170;9.978;2023-04-24T02:55:19;1.00;;;0.82;;
15240;SDS011;7723;52.170;9.978;2023-04-24T02:57:46;3.97;;;1.30;;
15240;SDS011;7723;52.170;9.978;2023-04-24T03:00:13;1.25;;;1.00;;
15240;SDS011;7723;52.170;9.978;2023-04-24T03:02:46;1.17;;;0.85;;
15240;SDS011;7723;52.170;9.978;2023-04-24T03:05:14;3.05;;;0.90;;
15240;SDS011;7723;52.170;9.978;2023-04-24T03:07:43;0.90;;;0.90;;
15240;SDS011;7723;52.170;9.978;2023-04-24T03:10:10;1.15;;;0.85;;
15240;SDS011;7723;52.170;9.978;2023-04-24T03:12:37;1.00;;;0.88;;
15240;SDS011;7723;52.170;9.978;2023-04-24T03:15:05;2.28;;;0.85;;
15240;SDS011;7723;52.170;9.978;2023-04-24T03:17:33;1.80;;;0.90;;
15240;SDS011;7723;52.170;9.978;2023-04-24T03:20:00;0.90;;;0.80;;
15240;SDS011;7723;52.170;9.978;2023-04-24T03:22:27;3.70;;;1.45;;
15240;SDS011;7723;52.170;9.978;2023-04-24T03:24:56;1.00;;;0.90;;
15240;SDS011;7723;52.170;9.978;2023-04-24T03:27:23;2.00;;;0.90;;
15240;SDS011;7723;52.170;9.978;2023-04-24T03:29:50;0.90;;;0.80;;
15240;SDS011;7723;52.170;9.978;2023-04-24T03:32:20;1.90;;;0.85;;
15240;SDS011;7723;52.170;9.978;2023-04-24T03:34:47;1.42;;;0.70;;
15240;SDS011;7723;52.170;9.978;2023-04-24T03:37:15;1.13;;;0.90;;
15240;SDS011;7723;52.170;9.978;2023-04-24T03:39:42;0.70;;;0.70;;
15240;SDS011;7723;52.170;9.978;2023-04-24T03:42:11;1.80;;;0.65;;
15240;SDS011;7723;52.170;9.978;2023-04-24T03:44:38;2.28;;;0.77;;
15240;SDS011;7723;52.170;9.978;2023-04-24T03:47:05;3.47;;;0.80;;
15240;SDS011;7723;52.170;9.978;2023-04-24T03:49:32;2.03;;;0.95;;
15240;SDS011;7723;52.170;9.978;2023-04-24T03:51:59;2.10;;;0.98;;
15240;SDS011;7723;52.170;9.978;2023-04-24T03:54:26;3.30;;;0.65;;
15240;SDS011;7723;52.170;9.978;2023-04-24T03:56:53;0.80;;;0.75;;
15240;SDS011;7723;52.170;9.978;2023-04-24T03:59:22;1.23;;;0.77;;
15240;SDS011;7723;52.170;9.978;2023-04-24T04:01:49;1.35;;;1.10;;
15240;SDS011;7723;52.170;9.978;2023-04-24T04:04:16;1.35;;;1.17;;
15240;SDS011;7723;52.170;9.978;2023-04-24T04:06:43;1.63;;;0.55;;
15240;SDS011;7723;52.170;9.978;2023-04-24T04:09:11;1.40;;;1.08;;
15240;SDS011;7723;52.170;9.978;2023-04-24T04:11:39;1.25;;;1.00;;
15240;SDS011;7723;52.170;9.978;2023-04-24T04:14:06;2.38;;;1.33;;
15240;SDS011;7723;52.170;9.978;2023-04-24T04:16:34;0.95;;;0.90;;
15240;SDS011;7723;52.170;9.978;2023-04-24T04:19:02;1.00;;;0.90;;
15240;SDS011;7723;52.170;9.978;2023-04-24T04:21:30;2.30;;;1.25;;
15240;SDS011;7723;52.170;9.978;2023-04-24T04:23:57;1.98;;;1.20;;
15240;SDS011;7723;52.170;9.978;2023-04-24T04:26:24;1.58;;;1.17;;
15240;SDS011;7723;52.170;9.978;2023-04-24T04:28:52;1.23;;;1.05;;
15240;SDS011;7723;52.170;9.978;2023-04-24T04:31:19;0.90;;;0.70;;
15240;SDS011;7723;52.170;9.978;2023-04-24T04:33:49;1.63;;;0.95;;
15240;SDS011;7723;52.170;9.978;2023-04-24T04:36:16;2.45;;;1.50;;
15240;SDS011;7723;52.170;9.978;2023-04-24T04:38:44;2.72;;;0.90;;
15240;SDS011;7723;52.170;9.978;2023-04-24T04:41:11;1.75;;;1.08;;
15240;SDS011;7723;52.170;9.978;2023-04-24T04:43:39;1.20;;;0.73;;
15240;SDS011;7723;52.170;9.978;2023-04-24T04:46:09;5.35;;;1.10;;
15240;SDS011;7723;52.170;9.978;2023-04-24T04:48:37;1.13;;;0.70;;
15240;SDS011;7723;52.170;9.978;2023-04-24T04:51:06;2.45;;;0.63;;
15240;SDS011;7723;52.170;9.978;2023-04-24T04:53:33;1.35;;;0.77;;
15240;SDS011;7723;52.170;9.978;2023-04-24T04:56:00;1.40;;;0.80;;
15240;SDS011;7723;52.170;9.978;2023-04-24T04:58:27;3.78;;;0.95;;
15240;SDS011;7723;52.170;9.978;2023-04-24T05:00:54;0.60;;;0.50;;
15240;SDS011;7723;52.170;9.978;2023-04-24T05:03:22;0.75;;;0.60;;
15240;SDS011;7723;52.170;9.978;2023-04-24T05:05:49;0.95;;;0.75;;
15240;SDS011;7723;52.170;9.978;2023-04-24T05:08:17;1.02;;;0.80;;
15240;SDS011;7723;52.170;9.978;2023-04-24T05:10:45;0.50;;;0.50;;
15240;SDS011;7723;52.170;9.978;2023-04-24T05:13:12;1.02;;;0.57;;
15240;SDS011;7723;52.170;9.978;2023-04-24T05:15:39;0.50;;;0.50;;
15240;SDS011;7723;52.170;9.978;2023-04-24T05:18:06;1.17;;;0.80;;
15240;SDS011;7723;52.170;9.978;2023-04-24T05:20:33;2.55;;;0.70;;
15240;SDS011;7723;52.170;9.978;2023-04-24T05:23:00;1.23;;;0.57;;
15240;SDS011;7723;52.170;9.978;2023-04-24T05:25:28;3.13;;;0.88;;
15240;SDS011;7723;52.170;9.978;2023-04-24T05:28:00;3.90;;;1.00;;
15240;SDS011;7723;52.170;9.978;2023-04-24T05:30:27;1.00;;;0.70;;
15240;SDS011;7723;52.170;9.978;2023-04-24T05:32:54;1.58;;;0.88;;
15240;SDS011;7723;52.170;9.978;2023-04-24T05:35:21;0.93;;;0.85;;
15240;SDS011;7723;52.170;9.978;2023-04-24T05:37:49;3.05;;;0.70;;
15240;SDS011;7723;52.170;9.978;2023-04-24T05:40:16;0.50;;;0.50;;
15240;SDS011;7723;52.170;9.978;2023-04-24T05:42:44;0.90;;;0.60;;
15240;SDS011;7723;52.170;9.978;2023-04-24T05:45:11;3.78;;;0.80;;
15240;SDS011;7723;52.170;9.978;2023-04-24T05:47:41;2.33;;;0.70;;
15240;SDS011;7723;52.170;9.978;2023-04-24T05:50:10;1.90;;;0.73;;
15240;SDS011;7723;52.170;9.978;2023-04-24T05:52:37;1.42;;;0.50;;
15240;SDS011;7723;52.170;9.978;2023-04-24T05:55:04;0.98;;;0.57;;
15240;SDS011;7723;52.170;9.978;2023-04-24T05:57:32;0.70;;;0.50;;
15240;SDS011;7723;52.170;9.978;2023-04-24T06:00:01;0.52;;;0.40;;
15240;SDS011;7723;52.170;9.978;2023-04-24T06:02:30;0.80;;;0.40;;
15240;SDS011;7723;52.170;9.978;2023-04-24T06:04:57;0.80;;;0.32;;
15240;SDS011;7723;52.170;9.978;2023-04-24T06:07:25;0.63;;;0.32;;
15240;SDS011;7723;52.170;9.978;2023-04-24T06:09:52;0.40;;;0.40;;
15240;SDS011;7723;52.170;9.978;2023-04-24T06:12:19;0.73;;;0.30;;
15240;SDS011;7723;52.170;9.978;2023-04-24T06:14:46;0.45;;;0.30;;
15240;SDS011;7723;52.170;9.978;2023-04-24T06:17:15;1.88;;;0.47;;
15240;SDS011;7723;52.170;9.978;2023-04-24T06:19:43;0.50;;;0.40;;
15240;SDS011;7723;52.170;9.978;2023-04-24T06:22:10;2.88;;;0.30;;
15240;SDS011;7723;52.170;9.978;2023-04-24T06:24:37;0.70;;;0.50;;
15240;SDS011;7723;52.170;9.978;2023-04-24T06:27:04;0.30;;;0.30;;
15240;SDS011;7723;52.170;9.978;2023-04-24T06:29:31;0.52;;;0.32;;
15240;SDS011;7723;52.170;9.978;2023-04-24T06:31:59;0.60;;;0.60;;
15240;SDS011;7723;52.170;9.978;2023-04-24T06:34:27;0.93;;;0.60;;
15240;SDS011;7723;52.170;9.978;2023-04-24T06:36:55;1.55;;;0.60;;
15240;SDS011;7723;52.170;9.978;2023-04-24T06:39:23;1.88;;;1.10;;
15240;SDS011;7723;52.170;9.978;2023-04-24T06:41:50;1.33;;;0.90;;
15240;SDS011;7723;52.170;9.978;2023-04-24T06:44:17;1.45;;;0.60;;
15240;SDS011;7723;52.170;9.978;2023-04-24T06:46:44;0.90;;;0.80;;
15240;SDS011;7723;52.170;9.978;2023-04-24T06:49:11;1.02;;;0.60;;
15240;SDS011;7723;52.170;9.978;2023-04-24T06:51:42;1.08;;;0.90;;
15240;SDS011;7723;52.170;9.978;2023-04-24T06:54:09;1.00;;;0.90;;
15240;SDS011;7723;52.170;9.978;2023-04-24T06:56:37;1.10;;;1.00;;
15240;SDS011;7723;52.170;9.978;2023-04-24T06:59:04;1.35;;;0.90;;
15240;SDS011;7723;52.170;9.978;2023-04-24T07:01:31;1.13;;;0.77;;
15240;SDS011;7723;52.170;9.978;2023-04-24T07:03:58;1.27;;;0.88;;
15240;SDS011;7723;52.170;9.978;2023-04-24T07:06:25;1.35;;;0.88;;
15240;SDS011;7723;52.170;9.978;2023-04-24T07:08:54;1.30;;;1.05;;
15240;SDS011;7723;52.170;9.978;2023-04-24T07:11:21;0.90;;;0.90;;
15240;SDS011;7723;52.170;9.978;2023-04-24T07:13:48;1.63;;;1.10;;
15240;SDS011;7723;52.170;9.978;2023-04-24T07:16:15;1.45;;;1.08;;
15240;SDS011;7723;52.170;9.978;2023-04-24T07:18:42;1.50;;;1.20;;
15240;SDS011;7723;52.170;9.978;2023-04-24T07:21:10;2.88;;;1.10;;
15240;SDS011;7723;52.170;9.978;2023-04-24T07:23:37;2.15;;;1.00;;
15240;SDS011;7723;52.170;9.978;2023-04-24T07:26:07;1.83;;;1.20;;
15240;SDS011;7723;52.170;9.978;2023-04-24T07:28:34;1.58;;;1.20;;
15240;SDS011;7723;52.170;9.978;2023-04-24T07:31:01;2.65;;;1.25;;
15240;SDS011;7723;52.170;9.978;2023-04-24T07:33:29;2.88;;;1.88;;
15240;SDS011;7723;52.170;9.978;2023-04-24T07:35:56;2.15;;;1.70;;
15240;SDS011;7723;52.170;9.978;2023-04-24T07:38:23;2.92;;;2.00;;
15240;SDS011;7723;52.170;9.978;2023-04-24T07:40:50;4.05;;;2.00;;
15240;SDS011;7723;52.170;9.978;2023-04-24T07:43:19;2.38;;;2.00;;
15240;SDS011;7723;52.170;9.978;2023-04-24T07:45:47;2.70;;;2.30;;
15240;SDS011;7723;52.170;9.978;2023-04-24T07:48:14;3.90;;;2.03;;
15240;SDS011;7723;52.170;9.978;2023-04-24T07:50:42;3.65;;;2.03;;
15240;SDS011;7723;52.170;9.978;2023-04-24T07:53:09;2.65;;;2.10;;
15240;SDS011;7723;52.170;9.978;2023-04-24T07:55:37;2.53;;;2.30;;
15240;SDS011;7723;52.170;9.978;2023-04-24T07:58:04;5.25;;;2.55;;
15240;SDS011;7723;52.170;9.978;2023-04-24T08:00:32;3.38;;;2.65;;
15240;SDS011;7723;52.170;9.978;2023-04-24T08:03:00;3.88;;;3.10;;
15240;SDS011;7723;52.170;9.978;2023-04-24T08:05:27;3.03;;;2.70;;
15240;SDS011;7723;52.170;9.978;2023-04-24T08:07:54;3.50;;;2.65;;
15240;SDS011;7723;52.170;9.978;2023-04-24T08:10:22;4.45;;;2.80;;
15240;SDS011;7723;52.170;9.978;2023-04-24T08:12:49;4.65;;;3.30;;
15240;SDS011;7723;52.170;9.978;2023-04-24T08:15:17;4.93;;;3.42;;
15240;SDS011;7723;52.170;9.978;2023-04-24T08:17:45;3.42;;;2.78;;
15240;SDS011;7723;52.170;9.978;2023-04-24T08:20:12;3.58;;;3.15;;
15240;SDS011;7723;52.170;9.978;2023-04-24T08:22:39;4.28;;;2.70;;
15240;SDS011;7723;52.170;9.978;2023-04-24T08:25:07;3.13;;;2.72;;
15240;SDS011;7723;52.170;9.978;2023-04-24T08:27:35;4.03;;;2.70;;
15240;SDS011;7723;52.170;9.978;2023-04-24T08:30:04;4.68;;;3.00;;
15240;SDS011;7723;52.170;9.978;2023-04-24T08:32:32;3.78;;;2.80;;
15240;SDS011;7723;52.170;9.978;2023-04-24T08:35:00;3.58;;;2.97;;
15240;SDS011;7723;52.170;9.978;2023-04-24T08:37:27;4.38;;;2.65;;
15240;SDS011;7723;52.170;9.978;2023-04-24T08:39:54;3.30;;;2.58;;
15240;SDS011;7723;52.170;9.978;2023-04-24T08:42:22;3.10;;;2.03;;
15240;SDS011;7723;52.170;9.978;2023-04-24T08:44:49;2.00;;;1.80;;
15240;SDS011;7723;52.170;9.978;2023-04-24T08:47:17;2.72;;;2.10;;
15240;SDS011;7723;52.170;9.978;2023-04-24T08:49:46;2.35;;;2.15;;
15240;SDS011;7723;52.170;9.978;2023-04-24T08:52:17;2.95;;;2.13;;
15240;SDS011;7723;52.170;9.978;2023-04-24T08:54:45;2.78;;;2.15;;
15240;SDS011;7723;52.170;9.978;2023-04-24T08:57:13;3.08;;;2.15;;
15240;SDS011;7723;52.170;9.978;2023-04-24T08:59:41;2.42;;;2.20;;
15240;SDS011;7723;52.170;9.978;2023-04-24T09:02:10;3.45;;;2.78;;
15240;SDS011;7723;52.170;9.978;2023-04-24T09:04:37;3.28;;;2.72;;
15240;SDS011;7723;52.170;9.978;2023-04-24T09:07:05;3.35;;;2.65;;
15240;SDS011;7723;52.170;9.978;2023-04-24T09:09:35;3.22;;;2.25;;
15240;SDS011;7723;52.170;9.978;2023-04-24T09:12:05;3.35;;;2.65;;
15240;SDS011;7723;52.170;9.978;2023-04-24T09:14:34;4.25;;;2.67;;
15240;SDS011;7723;52.170;9.978;2023-04-24T09:17:04;3.10;;;2.40;;
15240;SDS011;7723;52.170;9.978;2023-04-24T09:19:32;3.45;;;2.42;;
15240;SDS011;7723;52.170;9.978;2023-04-24T09:21:59;2.22;;;1.95;;
15240;SDS011;7723;52.170;9.978;2023-04-24T09:24:30;2.85;;;1.92;;
15240;SDS011;7723;52.170;9.978;2023-04-24T09:26:59;2.95;;;2.30;;
15240;SDS011;7723;52.170;9.978;2023-04-24T09:29:27;2.78;;;1.75;;
15240;SDS011;7723;52.170;9.978;2023-04-24T09:31:54;2.28;;;2.00;;
15240;SDS011;7723;52.170;9.978;2023-04-24T09:34:22;1.75;;;1.58;;
15240;SDS011;7723;52.170;9.978;2023-04-24T09:36:50;2.33;;;1.60;;
15240;SDS011;7723;52.170;9.978;2023-04-24T09:39:18;2.05;;;1.45;;
15240;SDS011;7723;52.170;9.978;2023-04-24T09:41:46;1.73;;;1.40;;
15240;SDS011;7723;52.170;9.978;2023-04-24T09:44:16;2.90;;;1.63;;
15240;SDS011;7723;52.170;9.978;2023-04-24T09:46:46;2.80;;;1.70;;
15240;SDS011;7723;52.170;9.978;2023-04-24T09:49:20;2.58;;;1.83;;
15240;SDS011;7723;52.170;9.978;2023-04-24T09:51:48;2.97;;;1.80;;
15240;SDS011;7723;52.170;9.978;2023-04-24T09:54:16;1.98;;;1.55;;
15240;SDS011;7723;52.170;9.978;2023-04-24T09:56:45;1.83;;;1.50;;
15240;SDS011;7723;52.170;9.978;2023-04-24T09:59:16;2.13;;;1.83;;
15240;SDS011;7723;52.170;9.978;2023-04-24T10:01:44;1.67;;;1.40;;
15240;SDS011;7723;52.170;9.978;2023-04-24T10:04:17;1.95;;;1.58;;
15240;SDS011;7723;52.170;9.978;2023-04-24T10:06:45;1.60;;;1.10;;
15240;SDS011;7723;52.170;9.978;2023-04-24T10:09:13;2.42;;;1.40;;
15240;SDS011;7723;52.170;9.978;2023-04-24T10:11:42;2.00;;;1.48;;
15240;SDS011;7723;52.170;9.978;2023-04-24T10:14:11;1.67;;;1.35;;
15240;SDS011;7723;52.170;9.978;2023-04-24T10:16:41;1.20;;;1.10;;
15240;SDS011;7723;52.170;9.978;2023-04-24T10:19:12;2.15;;;1.55;;
15240;SDS011;7723;52.170;9.978;2023-04-24T10:21:40;1.55;;;1.23;;
15240;SDS011;7723;52.170;9.978;2023-04-24T10:24:11;2.20;;;1.20;;
15240;SDS011;7723;52.170;9.978;2023-04-24T10:26:39;1.30;;;1.17;;
15240;SDS011;7723;52.170;9.978;2023-04-24T10:29:07;1.63;;;1.15;;
15240;SDS011;7723;52.170;9.978;2023-04-24T10:31:37;1.70;;;1.20;;
15240;SDS011;7723;52.170;9.978;2023-04-24T10:34:06;2.05;;;1.30;;
15240;SDS011;7723;52.170;9.978;2023-04-24T10:36:35;1.73;;;1.50;;
15240;SDS011;7723;52.170;9.978;2023-04-24T10:39:05;2.33;;;1.50;;
15240;SDS011;7723;52.170;9.978;2023-04-24T10:41:36;3.13;;;1.67;;
15240;SDS011;7723;52.170;9.978;2023-04-24T10:44:04;1.55;;;1.40;;
15240;SDS011;7723;52.170;9.978;2023-04-24T10:46:32;2.58;;;1.30;;
15240;SDS011;7723;52.170;9.978;2023-04-24T10:49:00;1.88;;;1.30;;
15240;SDS011;7723;52.170;9.978;2023-04-24T10:51:44;1.45;;;1.30;;
15240;SDS011;7723;52.170;9.978;2023-04-24T10:54:23;2.40;;;1.10;;
15240;SDS011;7723;52.170;9.978;2023-04-24T10:56:51;2.35;;;1.50;;
15240;SDS011;7723;52.170;9.978;2023-04-24T10:59:24;2.10;;;1.20;;
15240;SDS011;7723;52.170;9.978;2023-04-24T11:01:52;1.42;;;1.30;;
15240;SDS011;7723;52.170;9.978;2023-04-24T11:04:29;1.50;;;1.38;;
15240;SDS011;7723;52.170;9.978;2023-04-24T11:06:58;2.13;;;1.33;;
15240;SDS011;7723;52.170;9.978;2023-04-24T11:09:26;1.73;;;1.63;;
15240;SDS011;7723;52.170;9.978;2023-04-24T11:12:03;1.63;;;1.13;;
15240;SDS011;7723;52.170;9.978;2023-04-24T11:17:30;1.83;;;1.58;;
15240;SDS011;7723;52.170;9.978;2023-04-24T11:20:01;2.15;;;1.73;;
15240;SDS011;7723;52.170;9.978;2023-04-24T11:22:32;2.42;;;1.40;;
15240;SDS011;7723;52.170;9.978;2023-04-24T11:25:01;1.70;;;1.52;;
15240;SDS011;7723;52.170;9.978;2023-04-24T11:27:29;4.82;;;2.17;;
15240;SDS011;7723;52.170;9.978;2023-04-24T11:29:59;1.30;;;1.15;;
15240;SDS011;7723;52.170;9.978;2023-04-24T11:32:28;2.30;;;1.20;;
15240;SDS011;7723;52.170;9.978;2023-04-24T11:34:57;1.10;;;1.00;;
15240;SDS011;7723;52.170;9.978;2023-04-24T11:37:27;3.97;;;0.90;;
15240;SDS011;7723;52.170;9.978;2023-04-24T11:39:57;1.15;;;0.88;;
15240;SDS011;7723;52.170;9.978;2023-04-24T11:42:24;1.08;;;0.80;;
15240;SDS011;7723;52.170;9.978;2023-04-24T11:44:52;0.98;;;0.80;;
15240;SDS011;7723;52.170;9.978;2023-04-24T11:47:20;2.00;;;0.80;;
15240;SDS011;7723;52.170;9.978;2023-04-24T11:49:55;1.10;;;0.82;;
15240;SDS011;7723;52.170;9.978;2023-04-24T11:52:22;1.25;;;1.10;;
15240;SDS011;7723;52.170;9.978;2023-04-24T11:54:49;0.93;;;0.88;;
15240;SDS011;7723;52.170;9.978;2023-04-24T11:57:18;1.00;;;0.90;;
15240;SDS011;7723;52.170;9.978;2023-04-24T11:59:46;1.23;;;0.88;;
15240;SDS011;7723;52.170;9.978;2023-04-24T12:02:20;0.90;;;0.80;;
15240;SDS011;7723;52.170;9.978;2023-04-24T12:04:48;0.93;;;0.82;;
15240;SDS011;7723;52.170;9.978;2023-04-24T12:07:15;1.10;;;0.88;;
15240;SDS011;7723;52.170;9.978;2023-04-24T12:09:43;1.00;;;0.90;;
15240;SDS011;7723;52.170;9.978;2023-04-24T12:12:12;1.17;;;0.93;;
15240;SDS011;7723;52.170;9.978;2023-04-24T12:14:45;3.38;;;1.25;;
15240;SDS011;7723;52.170;9.978;2023-04-24T12:17:14;1.75;;;0.80;;
15240;SDS011;7723;52.170;9.978;2023-04-24T12:19:45;1.55;;;1.00;;
15240;SDS011;7723;52.170;9.978;2023-04-24T12:22:13;0.70;;;0.70;;
15240;SDS011;7723;52.170;9.978;2023-04-24T12:24:55;1.42;;;0.85;;
15240;SDS011;7723;52.170;9.978;2023-04-24T12:27:25;2.00;;;0.80;;
15240;SDS011;7723;52.170;9.978;2023-04-24T12:29:55;0.88;;;0.88;;
15240;SDS011;7723;52.170;9.978;2023-04-24T12:32:22;0.55;;;0.55;;
15240;SDS011;7723;52.170;9.978;2023-04-24T12:34:50;1.88;;;0.70;;
15240;SDS011;7723;52.170;9.978;2023-04-24T12:37:17;0.68;;;0.63;;
15240;SDS011;7723;52.170;9.978;2023-04-24T12:39:57;0.75;;;0.70;;
15240;SDS011;7723;52.170;9.978;2023-04-24T12:42:26;1.00;;;0.70;;
15240;SDS011;7723;52.170;9.978;2023-04-24T12:44:57;1.00;;;0.90;;
15240;SDS011;7723;52.170;9.978;2023-04-24T12:47:26;1.95;;;0.80;;
15240;SDS011;7723;52.170;9.978;2023-04-24T12:49:53;0.82;;;0.82;;
15240;SDS011;7723;52.170;9.978;2023-04-24T12:52:21;0.50;;;0.50;;
15240;SDS011;7723;52.170;9.978;2023-04-24T12:54:52;0.70;;;0.70;;
15240;SDS011;7723;52.170;9.978;2023-04-24T12:57:20;0.70;;;0.65;;
15240;SDS011;7723;52.170;9.978;2023-04-24T12:59:47;0.88;;;0.73;;
15240;SDS011;7723;52.170;9.978;2023-04-24T13:02:15;1.48;;;0.70;;
15240;SDS011;7723;52.170;9.978;2023-04-24T13:04:44;2.78;;;0.90;;
15240;SDS011;7723;52.170;9.978;2023-04-24T13:07:12;1.10;;;0.90;;
15240;SDS011;7723;52.170;9.978;2023-04-24T13:09:40;2.95;;;0.75;;
15240;SDS011;7723;52.170;9.978;2023-04-24T13:12:07;1.35;;;0.75;;
15240;SDS011;7723;52.170;9.978;2023-04-24T13:14:35;0.95;;;0.70;;
15240;SDS011;7723;52.170;9.978;2023-04-24T13:17:03;0.82;;;0.77;;
15240;SDS011;7723;52.170;9.978;2023-04-24T13:19:35;2.83;;;1.00;;
15240;SDS011;7723;52.170;9.978;2023-04-24T13:22:03;0.73;;;0.65;;
15240;SDS011;7723;52.170;9.978;2023-04-24T13:24:30;1.38;;;0.82;;
15240;SDS011;7723;52.170;9.978;2023-04-24T13:26:58;1.05;;;0.90;;
15240;SDS011;7723;52.170;9.978;2023-04-24T13:29:26;0.80;;;0.80;;
15240;SDS011;7723;52.170;9.978;2023-04-24T13:31:53;1.92;;;1.00;;
15240;SDS011;7723;52.170;9.978;2023-04-24T13:34:21;1.10;;;0.80;;
15240;SDS011;7723;52.170;9.978;2023-04-24T13:36:50;0.85;;;0.77;;
15240;SDS011;7723;52.170;9.978;2023-04-24T13:39:17;0.70;;;0.70;;
15240;SDS011;7723;52.170;9.978;2023-04-24T13:41:44;0.80;;;0.80;;
15240;SDS011;7723;52.170;9.978;2023-04-24T13:44:13;1.30;;;0.60;;
15240;SDS011;7723;52.170;9.978;2023-04-24T13:46:40;0.75;;;0.75;;
15240;SDS011;7723;52.170;9.978;2023-04-24T13:49:08;1.77;;;0.70;;
15240;SDS011;7723;52.170;9.978;2023-04-24T13:51:35;1.70;;;0.93;;
15240;SDS011;7723;52.170;9.978;2023-04-24T13:54:04;0.45;;;0.40;;
15240;SDS011;7723;52.170;9.978;2023-04-24T13:56:31;1.40;;;0.40;;
15240;SDS011;7723;52.170;9.978;2023-04-24T13:58:58;0.30;;;0.30;;
15240;SDS011;7723;52.170;9.978;2023-04-24T14:01:26;0.55;;;0.40;;
15240;SDS011;7723;52.170;9.978;2023-04-24T14:03:53;0.20;;;0.20;;
15240;SDS011;7723;52.170;9.978;2023-04-24T14:06:21;0.28;;;0.22;;
15240;SDS011;7723;52.170;9.978;2023-04-24T14:08:49;1.00;;;0.30;;
15240;SDS011;7723;52.170;9.978;2023-04-24T14:11:18;1.08;;;0.40;;
15240;SDS011;7723;52.170;9.978;2023-04-24T14:13:46;0.30;;;0.20;;
15240;SDS011;7723;52.170;9.978;2023-04-24T14:16:13;0.35;;;0.30;;
15240;SDS011;7723;52.170;9.978;2023-04-24T14:18:40;2.38;;;0.35;;
15240;SDS011;7723;52.170;9.978;2023-04-24T14:21:08;1.40;;;0.50;;
15240;SDS011;7723;52.170;9.978;2023-04-24T14:23:35;0.43;;;0.40;;
15240;SDS011;7723;52.170;9.978;2023-04-24T14:26:02;0.60;;;0.45;;
15240;SDS011;7723;52.170;9.978;2023-04-24T14:28:32;0.47;;;0.40;;
15240;SDS011;7723;52.170;9.978;2023-04-24T14:30:59;2.25;;;0.52;;
15240;SDS011;7723;52.170;9.978;2023-04-24T14:33:26;0.70;;;0.30;;
15240;SDS011;7723;52.170;9.978;2023-04-24T14:35:53;0.30;;;0.30;;
15240;SDS011;7723;52.170;9.978;2023-04-24T14:38:20;0.32;;;0.30;;
15240;SDS011;7723;52.170;9.978;2023-04-24T14:40:48;0.60;;;0.50;;
15240;SDS011;7723;52.170;9.978;2023-04-24T14:43:15;0.50;;;0.50;;
15240;SDS011;7723;52.170;9.978;2023-04-24T14:45:45;0.88;;;0.70;;
15240;SDS011;7723;52.170;9.978;2023-04-24T14:48:12;1.17;;;0.80;;
15240;SDS011;7723;52.170;9.978;2023-04-24T14:50:41;0.75;;;0.73;;
15240;SDS011;7723;52.170;9.978;2023-04-24T14:53:08;1.10;;;0.80;;
15240;SDS011;7723;52.170;9.978;2023-04-24T14:55:35;1.25;;;0.60;;
15240;SDS011;7723;52.170;9.978;2023-04-24T14:58:03;0.80;;;0.65;;
15240;SDS011;7723;52.170;9.978;2023-04-24T15:00:30;2.72;;;0.77;;
15240;SDS011;7723;52.170;9.978;2023-04-24T15:02:59;1.98;;;0.95;;
15240;SDS011;7723;52.170;9.978;2023-04-24T15:05:27;1.05;;;0.80;;
15240;SDS011;7723;52.170;9.978;2023-04-24T15:07:55;3.00;;;0.90;;